Capitol Logistics 404


KBNA
Nashville International Airport
Nashville, Tennessee, US
KMSY
Louis Armstrong New Orleans International Airport
New Orleans, Louisiana, US

Activity Log

Date Flight Route Aircraft Duration
07/06/2020 CPX404 LBY MEI IGB HRTUN CHSNE2 B752 1h 25m
04/12/2020 CPX404 LBY MEI IGB HRTUN CHSNE2 B752 1h 51m
12/21/2019 CPX404 LBY MEI IGB HRTUN CHSNE2 B752 1h 25m
09/19/2019 CPX404 N0464F340 DRURY3 HAGIE IGB MEI RYTHM4 B752 1h 11m
06/11/2019 CPX404 KBNA DRURY3 JALAR MEI RYTHM4 KMSY B752 1h 30m
02/14/2019 CPX404 LBY MEI IGB HRTUN CHSNE2 B752 1h 23m

Route Details

Aircraft Information
Primary: Boeing 757-200SF
Backup: Boeing 737-800BCF
Route Data
Distance: 410nm
Sched. Duration: 1h 30m
Avg. Duration: 1h 27m (-2m)
Times Flown: 6
Recm'd Route: LBY MEI IGB HRTUN CHSNE2
Planned Altitude: 36,000ft
Origin Wx: KBNA 222053Z 17008KT 10SM SCT055 29/15 A3008 RMK AO2 SLP180 T02940150 56020
Dest. Wx: KMSY 222053Z 10016KT 10SM FEW023 SCT030TCU BKN250 28/22 A2997 RMK AO2 SLP151 TCU W DSNT N AND SW T02830222 56014
Notes:

Financial History
Total Freight: 307,522lbs
Average Load: 51,254lbs/flt
Fuel Used: 58,291lbs
Avg. Fuel Used: 9,715lbs/flt
Fuel Expense: $50,130
Avg. Fuel Expense: $8,355
Avg. Fuel Cost: $0.86/lbs
Total Gross Income: $416,697
Pilot Pay: $1,034
Total Expenses: $45,315
Total Revenue: $319,693
Average Revenue: $69,449.43